Jua Kali — 2EPI4 — position and weather

sailwx.info

Track history (hours):
 
Tides and Currents Weather Stations Pressure Air Temp Water Temp Dewpoint Dewpoint Depression Visibility Wind Speed Wind Dir Waves Ship Positions

Jua Kali

Last reported at 2018-Feb-22 13:31 UTC. Time now 2018-Feb-24 20:12 UTC.
Position N 17°01' W 061°46'.

Length 13 m.

Type: Sailing vessel. MMSI: 235087061.

Date/timePositionNaut miles runAvg speedWind from/ knotsBaromVisibWave heightAir tempDewpointWater temp
2018-Feb-22 13:31N 17°01' W 061°46'0 0.0
2018-Feb-22 13:28N 17°01' W 061°46'0 0.8
2018-Feb-22 13:00N 17°01' W 061°47'2 3.9
2018-Feb-22 12:30N 16°60' W 061°45'4 7.7
2018-Feb-22 12:00N 17°01' W 061°41'4 7.6
2018-Feb-22 11:30N 17°02' W 061°37'4 8.6
2018-Feb-22 11:00N 17°02' W 061°33'4 8.0
2018-Feb-22 10:30N 16°59' W 061°30'5 9.1
2018-Feb-22 09:59N 16°55' W 061°26'34 1.5
2018-Feb-21 10:54N 16°40' W 061°58'3 8.4
2018-Feb-21 10:30N 16°43' W 061°60'4 8.0
2018-Feb-21 09:59N 16°46' W 062°02'4 7.6
2018-Feb-21 09:26N 16°50' W 062°04'3 7.6
2018-Feb-21 09:01N 16°53' W 062°06'92 6.9
2018-Feb-20 19:45N 18°05' W 063°06'1 4.9
2018-Feb-20 19:29N 18°05' W 063°07'2 4.5
2018-Feb-20 18:58N 18°04' W 063°09'4 7.9
2018-Feb-20 18:28N 18°01' W 063°06'11 1.9
2018-Feb-20 12:47N 17°52' W 063°01'2 6.1
2018-Feb-20 12:30N 17°52' W 063°03'7 6.5
2018-Feb-20 11:25N 17°55' W 063°09'2 5.5
2018-Feb-20 10:59N 17°56' W 063°12'4 6.9
2018-Feb-20 10:26N 17°52' W 063°13'67 5.7
2018-Feb-19 22:40N 17°23' W 062°10'2 9.0
2018-Feb-19 22:26N 17°25' W 062°08'6 9.1
2018-Feb-19 21:49N 17°28' W 062°03'5 8.5
2018-Feb-19 21:17N 17°31' W 061°60'4 8.9
2018-Feb-19 20:51N 17°33' W 061°56'3 4.4
2018-Feb-19 20:04N 17°31' W 061°53'1 8.9
2018-Feb-19 19:58N 17°30' W 061°53'4 8.9
2018-Feb-19 19:30N 17°27' W 061°51'5 9.0
2018-Feb-19 19:01N 17°23' W 061°49'6 8.9
2018-Feb-19 18:19N 17°17' W 061°46'3 8.5
2018-Feb-19 18:00N 17°15' W 061°45'4 8.8
2018-Feb-19 17:30N 17°11' W 061°42'5 9.0
2018-Feb-19 17:00N 17°07' W 061°40'4 8.1
2018-Feb-19 16:30N 17°03' W 061°39'2 5.0
2018-Feb-19 16:00N 17°01' W 061°41'3 5.2
2018-Feb-19 15:29N 16°60' W 061°44'2 4.6
2018-Feb-19 15:00N 16°59' W 061°46'0 0.7
2018-Feb-19 14:30N 16°60' W 061°46'1 1.4
2018-Feb-19 14:00N 17°00' W 061°47'1 1.3
2018-Feb-19 13:28N 17°01' W 061°46'0 0.0
2018-Feb-19 12:58N 17°01' W 061°46'0 0.0
2018-Feb-19 12:28N 17°01' W 061°46'0 0.0
2018-Feb-19 11:58N 17°01' W 061°46'0 0.0
2018-Feb-18 21:54N 17°01' W 061°46'0 0.0
2018-Feb-18 21:30N 17°01' W 061°46'0 0.0
2018-Feb-18 21:00N 17°01' W 061°46'0 0.0
2018-Feb-18 20:30N 17°01' W 061°46'0 0.0
2018-Feb-18 20:00N 17°01' W 061°46'0 0.0
2018-Feb-18 19:30N 17°01' W 061°46'0 0.0
2018-Feb-18 19:00N 17°01' W 061°46'0 0.0
2018-Feb-18 17:50N 17°01' W 061°46'0 0.0
2018-Feb-17 21:39N 17°01' W 061°46'0 0.0
2018-Feb-17 21:27N 17°01' W 061°46'1 2.2
2018-Feb-17 21:00N 17°00' W 061°47'1 1.5
2018-Feb-17 20:30N 16°60' W 061°46'1 1.4
2018-Feb-17 20:00N 16°59' W 061°46'1 2.7
2018-Feb-17 19:30N 16°58' W 061°46'3 5.3
2018-Feb-17 19:00N 16°59' W 061°44'2 4.0
2018-Feb-17 18:29N 16°60' W 061°42'1 1.7
2018-Feb-17 18:01N 16°60' W 061°42'3 5.0
2018-Feb-17 17:30N 16°59' W 061°45'3 5.2
2018-Feb-17 17:00N 16°59' W 061°42'2 4.4
2018-Feb-17 16:30N 17°01' W 061°43'2 3.5
2018-Feb-17 16:00N 16°60' W 061°41'1 3.0
2018-Feb-17 15:30N 17°00' W 061°43'2 3.9
2018-Feb-17 14:58N 16°60' W 061°45'2 4.0
2018-Feb-17 14:30N 17°00' W 061°47'1 0.0
2018-Feb-16 21:17N 17°01' W 061°46'1 2.0
2018-Feb-16 21:00N 17°01' W 061°47'4 7.8
2018-Feb-16 20:30N 16°57' W 061°45'4 7.7
2018-Feb-16 20:00N 17°00' W 061°42'2 4.0
2018-Feb-16 19:30N 17°02' W 061°40'2 4.5
2018-Feb-16 18:58N 17°00' W 061°42'2 4.7
2018-Feb-16 18:28N 16°60' W 061°45'2 4.4
2018-Feb-16 18:00N 16°60' W 061°47'1 1.6
2018-Feb-16 17:28N 17°01' W 061°46'0 0.0
2018-Feb-16 16:58N 17°01' W 061°46'0 0.0
2018-Feb-16 16:25N 17°01' W 061°46'0 0.0
2018-Feb-16 16:00N 17°01' W 061°46'0 0.0
2018-Feb-14 18:16N 17°01' W 061°46'0 0.0
2018-Feb-14 16:18N 17°01' W 061°46'0 0.5
2018-Feb-14 16:00N 17°01' W 061°46'2 3.6
2018-Feb-14 15:30N 17°00' W 061°48'7 4.2
2018-Feb-14 13:47N 17°04' W 061°54'  
Track history (hours):
 
Tides and Currents Weather Stations Pressure Air Temp Water Temp Dewpoint Dewpoint Depression Visibility Wind Speed Wind Dir Waves Ship Positions

Jua Kali

Last reported at 2018-Feb-22 13:31 UTC. Time now 2018-Feb-24 20:12 UTC.
Position N 17°01' W 061°46'.

Length 13 m.

Type: Sailing vessel. MMSI: 235087061.

Date/timePositionNaut miles runAvg speedWind from/ knotsBaromVisibWave heightAir tempDewpointWater temp
2018-Feb-22 13:31N 17°01' W 061°46'0 0.0
2018-Feb-22 13:28N 17°01' W 061°46'0 0.8
2018-Feb-22 13:00N 17°01' W 061°47'2 3.9
2018-Feb-22 12:30N 16°60' W 061°45'4 7.7
2018-Feb-22 12:00N 17°01' W 061°41'4 7.6
2018-Feb-22 11:30N 17°02' W 061°37'4 8.6
2018-Feb-22 11:00N 17°02' W 061°33'4 8.0
2018-Feb-22 10:30N 16°59' W 061°30'5 9.1
2018-Feb-22 09:59N 16°55' W 061°26'34 1.5
2018-Feb-21 10:54N 16°40' W 061°58'3 8.4
2018-Feb-21 10:30N 16°43' W 061°60'4 8.0
2018-Feb-21 09:59N 16°46' W 062°02'4 7.6
2018-Feb-21 09:26N 16°50' W 062°04'3 7.6
2018-Feb-21 09:01N 16°53' W 062°06'92 6.9
2018-Feb-20 19:45N 18°05' W 063°06'1 4.9
2018-Feb-20 19:29N 18°05' W 063°07'2 4.5
2018-Feb-20 18:58N 18°04' W 063°09'4 7.9
2018-Feb-20 18:28N 18°01' W 063°06'11 1.9
2018-Feb-20 12:47N 17°52' W 063°01'2 6.1
2018-Feb-20 12:30N 17°52' W 063°03'7 6.5
2018-Feb-20 11:25N 17°55' W 063°09'2 5.5
2018-Feb-20 10:59N 17°56' W 063°12'4 6.9
2018-Feb-20 10:26N 17°52' W 063°13'67 5.7
2018-Feb-19 22:40N 17°23' W 062°10'2 9.0
2018-Feb-19 22:26N 17°25' W 062°08'6 9.1
2018-Feb-19 21:49N 17°28' W 062°03'5 8.5
2018-Feb-19 21:17N 17°31' W 061°60'4 8.9
2018-Feb-19 20:51N 17°33' W 061°56'3 4.4
2018-Feb-19 20:04N 17°31' W 061°53'1 8.9
2018-Feb-19 19:58N 17°30' W 061°53'4 8.9
2018-Feb-19 19:30N 17°27' W 061°51'5 9.0
2018-Feb-19 19:01N 17°23' W 061°49'6 8.9
2018-Feb-19 18:19N 17°17' W 061°46'3 8.5
2018-Feb-19 18:00N 17°15' W 061°45'4 8.8
2018-Feb-19 17:30N 17°11' W 061°42'5 9.0
2018-Feb-19 17:00N 17°07' W 061°40'4 8.1
2018-Feb-19 16:30N 17°03' W 061°39'2 5.0
2018-Feb-19 16:00N 17°01' W 061°41'3 5.2
2018-Feb-19 15:29N 16°60' W 061°44'2 4.6
2018-Feb-19 15:00N 16°59' W 061°46'0 0.7
2018-Feb-19 14:30N 16°60' W 061°46'1 1.4
2018-Feb-19 14:00N 17°00' W 061°47'1 1.3
2018-Feb-19 13:28N 17°01' W 061°46'0 0.0
2018-Feb-19 12:58N 17°01' W 061°46'0 0.0
2018-Feb-19 12:28N 17°01' W 061°46'0 0.0
2018-Feb-19 11:58N 17°01' W 061°46'0 0.0
2018-Feb-18 21:54N 17°01' W 061°46'0 0.0
2018-Feb-18 21:30N 17°01' W 061°46'0 0.0
2018-Feb-18 21:00N 17°01' W 061°46'0 0.0
2018-Feb-18 20:30N 17°01' W 061°46'0 0.0
2018-Feb-18 20:00N 17°01' W 061°46'0 0.0
2018-Feb-18 19:30N 17°01' W 061°46'0 0.0
2018-Feb-18 19:00N 17°01' W 061°46'0 0.0
2018-Feb-18 17:50N 17°01' W 061°46'0 0.0
2018-Feb-17 21:39N 17°01' W 061°46'0 0.0
2018-Feb-17 21:27N 17°01' W 061°46'1 2.2
2018-Feb-17 21:00N 17°00' W 061°47'1 1.5
2018-Feb-17 20:30N 16°60' W 061°46'1 1.4
2018-Feb-17 20:00N 16°59' W 061°46'1 2.7
2018-Feb-17 19:30N 16°58' W 061°46'3 5.3
2018-Feb-17 19:00N 16°59' W 061°44'2 4.0
2018-Feb-17 18:29N 16°60' W 061°42'1 1.7
2018-Feb-17 18:01N 16°60' W 061°42'3 5.0
2018-Feb-17 17:30N 16°59' W 061°45'3 5.2
2018-Feb-17 17:00N 16°59' W 061°42'2 4.4
2018-Feb-17 16:30N 17°01' W 061°43'2 3.5
2018-Feb-17 16:00N 16°60' W 061°41'1 3.0
2018-Feb-17 15:30N 17°00' W 061°43'2 3.9
2018-Feb-17 14:58N 16°60' W 061°45'2 4.0
2018-Feb-17 14:30N 17°00' W 061°47'1 0.0
2018-Feb-16 21:17N 17°01' W 061°46'1 2.0
2018-Feb-16 21:00N 17°01' W 061°47'4 7.8
2018-Feb-16 20:30N 16°57' W 061°45'4 7.7
2018-Feb-16 20:00N 17°00' W 061°42'2 4.0
2018-Feb-16 19:30N 17°02' W 061°40'2 4.5
2018-Feb-16 18:58N 17°00' W 061°42'2 4.7
2018-Feb-16 18:28N 16°60' W 061°45'2 4.4
2018-Feb-16 18:00N 16°60' W 061°47'1 1.6
2018-Feb-16 17:28N 17°01' W 061°46'0 0.0
2018-Feb-16 16:58N 17°01' W 061°46'0 0.0
2018-Feb-16 16:25N 17°01' W 061°46'0 0.0
2018-Feb-16 16:00N 17°01' W 061°46'0 0.0
2018-Feb-14 18:16N 17°01' W 061°46'0 0.0
2018-Feb-14 16:18N 17°01' W 061°46'0 0.5
2018-Feb-14 16:00N 17°01' W 061°46'2 3.6
2018-Feb-14 15:30N 17°00' W 061°48'7 4.2
2018-Feb-14 13:47N 17°04' W 061°54'  

Dump ship's entire track history